createdAt,value
2022-09-28T00:01:00.865Z,10.10
2022-09-28T00:03:29.183Z,10.00
2022-09-28T00:06:03.309Z,10.10
2022-09-28T00:08:32.969Z,10.00
2022-09-28T00:11:00.894Z,10.10
2022-09-28T00:13:29.455Z,10.10
2022-09-28T00:16:02.137Z,10.10
2022-09-28T00:18:30.243Z,10.10
2022-09-28T00:21:02.575Z,10.10
2022-09-28T00:23:31.859Z,10.00
2022-09-28T00:26:03.581Z,10.00
2022-09-28T00:28:32.115Z,10.00
2022-09-28T00:31:00.340Z,10.00
2022-09-28T00:33:28.294Z,10.00
2022-09-28T00:35:57.364Z,10.00
2022-09-28T00:38:28.382Z,10.00
2022-09-28T00:40:57.755Z,10.00
2022-09-28T00:43:26.378Z,9.90
2022-09-28T00:46:00.329Z,9.90
2022-09-28T00:48:33.121Z,10.00
2022-09-28T00:51:04.966Z,10.00
2022-09-28T00:53:36.494Z,10.00
2022-09-28T00:56:09.184Z,9.90
2022-09-28T00:58:41.961Z,9.90
2022-09-28T01:01:10.145Z,10.00
2022-09-28T01:03:41.214Z,10.00
2022-09-28T01:06:10.482Z,10.00
2022-09-28T01:08:39.415Z,9.90
2022-09-28T01:11:08.813Z,10.00
2022-09-28T01:13:37.352Z,9.90
2022-09-28T01:16:13.232Z,9.90
2022-09-28T01:18:48.637Z,10.00
2022-09-28T01:21:19.875Z,9.90
2022-09-28T01:24:15.204Z,9.90
2022-09-28T01:26:57.136Z,9.90
2022-09-28T01:29:52.339Z,9.90
2022-09-28T01:32:32.242Z,9.90
2022-09-28T01:35:06.571Z,9.90
2022-09-28T01:37:40.404Z,9.90
2022-09-28T01:40:11.390Z,9.90
2022-09-28T01:42:42.896Z,9.90
2022-09-28T01:45:17.279Z,9.90
2022-09-28T01:47:47.730Z,9.90
2022-09-28T01:50:20.581Z,9.90
2022-09-28T01:52:55.169Z,9.90
2022-09-28T01:55:29.895Z,9.90
2022-09-28T01:58:04.338Z,9.90
2022-09-28T02:00:34.007Z,9.80
2022-09-28T02:03:06.768Z,9.90
2022-09-28T02:05:37.805Z,9.90
2022-09-28T02:08:09.841Z,9.90
2022-09-28T02:10:41.902Z,9.90
2022-09-28T02:13:15.354Z,9.90
2022-09-28T02:15:47.045Z,9.90
2022-09-28T02:18:15.180Z,9.90
2022-09-28T02:20:47.739Z,9.90
2022-09-28T02:23:17.353Z,9.90
2022-09-28T02:25:52.178Z,9.90
2022-09-28T02:28:21.536Z,9.90
2022-09-28T02:30:49.497Z,9.90
2022-09-28T02:33:29.936Z,9.90
2022-09-28T02:35:59.397Z,9.90
2022-09-28T02:38:27.688Z,9.90
2022-09-28T02:41:04.321Z,9.90
2022-09-28T02:43:44.726Z,9.90
2022-09-28T02:46:23.152Z,9.90
2022-09-28T02:49:20.239Z,9.90
2022-09-28T02:52:01.797Z,9.90
2022-09-28T02:54:44.301Z,9.90
2022-09-28T02:57:21.296Z,9.90
2022-09-28T03:00:01.045Z,9.90
2022-09-28T03:02:33.293Z,9.90
2022-09-28T03:05:13.993Z,9.90
2022-09-28T03:07:47.124Z,9.90
2022-09-28T03:10:20.858Z,9.90
2022-09-28T03:12:50.163Z,9.90
2022-09-28T03:15:24.460Z,9.90
2022-09-28T03:17:52.674Z,10.00
2022-09-28T03:20:21.054Z,9.90
2022-09-28T03:23:12.326Z,10.00
2022-09-28T03:25:36.887Z,10.00
2022-09-28T03:28:04.818Z,10.00
2022-09-28T03:30:34.152Z,9.90
2022-09-28T03:33:03.092Z,10.00
2022-09-28T03:35:31.003Z,10.00
2022-09-28T03:37:59.028Z,10.00
2022-09-28T03:40:26.988Z,9.90
2022-09-28T03:42:55.065Z,10.00
2022-09-28T03:45:23.001Z,10.00
2022-09-28T03:47:52.273Z,10.00
2022-09-28T03:50:20.189Z,9.90
2022-09-28T03:52:48.106Z,10.00
2022-09-28T03:55:16.161Z,10.00
2022-09-28T03:57:44.206Z,10.00
2022-09-28T04:00:13.082Z,10.00
2022-09-28T04:02:41.016Z,10.00
2022-09-28T04:05:10.592Z,10.00
2022-09-28T04:07:38.540Z,10.00
2022-09-28T04:10:07.245Z,10.00
2022-09-28T04:12:35.225Z,9.90
2022-09-28T04:15:03.172Z,9.90
2022-09-28T04:17:33.813Z,9.90
2022-09-28T04:20:04.942Z,9.90
2022-09-28T04:22:34.665Z,10.00
2022-09-28T04:25:02.632Z,9.90
2022-09-28T04:27:48.127Z,9.90
2022-09-28T04:30:16.388Z,9.90
2022-09-28T04:32:44.372Z,9.90
2022-09-28T04:35:13.214Z,9.90
2022-09-28T04:37:42.778Z,9.90
2022-09-28T04:40:11.453Z,9.90
2022-09-28T04:42:39.354Z,9.90
2022-09-28T04:45:08.615Z,9.90
2022-09-28T04:47:36.561Z,9.90
2022-09-28T04:50:04.661Z,9.80
2022-09-28T04:52:32.575Z,9.80
2022-09-28T04:55:01.884Z,9.80
2022-09-28T04:57:29.810Z,9.80
2022-09-28T04:59:57.741Z,9.90
2022-09-28T05:02:25.716Z,9.80
2022-09-28T05:04:55.272Z,9.80
2022-09-28T05:07:23.235Z,9.80
2022-09-28T05:09:51.184Z,9.80
2022-09-28T05:12:21.522Z,9.80
2022-09-28T05:14:49.450Z,9.80
2022-09-28T05:17:17.353Z,9.80
2022-09-28T05:19:45.257Z,9.80
2022-09-28T05:22:14.822Z,9.80
2022-09-28T05:24:43.060Z,9.80
2022-09-28T05:27:10.972Z,9.90
2022-09-28T05:29:40.250Z,9.80
2022-09-28T05:32:08.214Z,9.80
2022-09-28T05:34:36.265Z,9.80
2022-09-28T05:37:04.256Z,9.80
2022-09-28T05:39:32.224Z,9.80
2022-09-28T05:42:00.167Z,9.70
2022-09-28T05:44:28.139Z,9.70
2022-09-28T05:46:57.434Z,9.80
2022-09-28T05:49:25.322Z,9.80
2022-09-28T05:51:53.226Z,9.70
2022-09-28T05:54:21.207Z,9.70
2022-09-28T05:56:49.167Z,9.70
2022-09-28T05:59:17.092Z,9.70
2022-09-28T06:01:45.058Z,9.70
2022-09-28T06:04:16.085Z,9.70
2022-09-28T06:06:44.238Z,9.70
2022-09-28T06:09:12.156Z,9.70
2022-09-28T06:11:40.080Z,9.70
2022-09-28T06:14:07.974Z,9.70
2022-09-28T06:16:38.279Z,9.80
2022-09-28T06:19:09.979Z,9.80
2022-09-28T06:21:39.745Z,9.80
2022-09-28T06:24:07.841Z,9.80
2022-09-28T06:26:35.843Z,9.80
2022-09-28T06:29:03.782Z,9.80
2022-09-28T06:31:31.731Z,9.80
2022-09-28T06:34:01.038Z,9.80
2022-09-28T06:36:31.194Z,9.80
2022-09-28T06:39:00.589Z,9.80
2022-09-28T06:41:28.548Z,9.90
2022-09-28T06:43:56.507Z,9.80
2022-09-28T06:46:24.473Z,9.80
2022-09-28T06:48:52.526Z,9.80
2022-09-28T06:51:20.427Z,9.90
2022-09-28T06:53:48.349Z,9.90
2022-09-28T06:56:18.028Z,9.90
2022-09-28T06:58:45.905Z,9.90
2022-09-28T07:01:13.900Z,9.90
2022-09-28T07:03:41.909Z,10.00
2022-09-28T07:06:12.363Z,10.00
2022-09-28T07:08:40.734Z,10.00
2022-09-28T07:11:10.081Z,10.00
2022-09-28T07:13:50.550Z,10.00
2022-09-28T07:16:24.152Z,10.10
2022-09-28T07:18:54.570Z,10.20
2022-09-28T07:21:29.756Z,10.10
2022-09-28T07:23:58.383Z,10.20
2022-09-28T07:26:26.742Z,10.20
2022-09-28T07:28:56.219Z,10.20
2022-09-28T07:31:25.450Z,10.20
2022-09-28T07:33:53.776Z,10.20
2022-09-28T07:36:22.709Z,10.20
2022-09-28T07:38:50.897Z,10.30
2022-09-28T07:41:22.505Z,10.30
2022-09-28T07:43:50.878Z,10.40
2022-09-28T07:46:21.395Z,10.30
2022-09-28T07:48:51.719Z,10.40
2022-09-28T07:51:21.178Z,10.40
2022-09-28T07:53:49.164Z,10.50
2022-09-28T07:56:20.370Z,10.50
2022-09-28T07:58:49.028Z,10.50
2022-09-28T08:01:17.593Z,10.60
2022-09-28T08:03:47.982Z,10.70
2022-09-28T08:06:17.633Z,10.70
2022-09-28T08:08:45.879Z,10.70
2022-09-28T08:11:15.757Z,10.70
2022-09-28T08:13:43.996Z,10.80
2022-09-28T08:16:12.553Z,10.80
2022-09-28T08:18:40.598Z,10.90
2022-09-28T08:21:28.921Z,10.90
2022-09-28T08:23:57.340Z,11.00
2022-09-28T08:26:25.267Z,11.10
2022-09-28T08:28:53.236Z,11.10
2022-09-28T08:31:21.275Z,11.10
2022-09-28T08:33:54.310Z,11.10
2022-09-28T08:36:23.976Z,11.20
2022-09-28T08:38:52.309Z,11.30
2022-09-28T08:41:28.917Z,11.30
2022-09-28T08:44:12.358Z,11.40
2022-09-28T08:46:44.699Z,11.40
2022-09-28T08:49:26.126Z,11.40
2022-09-28T08:52:01.598Z,11.50
2022-09-28T08:54:40.612Z,11.60
2022-09-28T08:57:13.041Z,11.60
2022-09-28T08:59:47.906Z,11.70
2022-09-28T09:02:20.259Z,11.80
2022-09-28T09:04:48.701Z,11.80
2022-09-28T09:07:50.778Z,11.90
2022-09-28T09:10:50.823Z,12.00
2022-09-28T09:13:44.210Z,12.00
2022-09-28T09:16:20.881Z,12.20
2022-09-28T09:18:55.704Z,12.20
2022-09-28T09:21:39.959Z,12.30
2022-09-28T09:24:27.093Z,12.30
2022-09-28T09:27:15.664Z,12.40
2022-09-28T09:29:56.011Z,12.50
2022-09-28T09:32:37.756Z,12.70
2022-09-28T09:35:24.351Z,12.70
2022-09-28T09:38:09.346Z,12.80
2022-09-28T09:40:52.333Z,12.80
2022-09-28T09:43:44.230Z,12.90
2022-09-28T09:46:17.771Z,13.00
2022-09-28T09:48:51.784Z,13.10
2022-09-28T09:51:25.257Z,13.10
2022-09-28T09:54:00.143Z,13.10
2022-09-28T09:56:36.141Z,13.10
2022-09-28T09:59:08.953Z,13.40
2022-09-28T10:01:39.651Z,13.40
2022-09-28T10:04:16.767Z,13.50
2022-09-28T10:06:45.286Z,13.40
2022-09-28T10:09:20.140Z,13.60
2022-09-28T10:11:50.202Z,13.70
2022-09-28T10:14:21.446Z,13.60
2022-09-28T10:16:50.617Z,13.60
2022-09-28T10:19:20.922Z,13.80
2022-09-28T10:21:51.691Z,13.80
2022-09-28T10:24:29.106Z,13.90
2022-09-28T10:27:04.164Z,13.90
2022-09-28T10:29:42.792Z,14.00
2022-09-28T10:32:23.832Z,14.00
2022-09-28T10:34:52.990Z,14.10
2022-09-28T10:37:21.066Z,14.20
2022-09-28T10:39:53.215Z,14.30
2022-09-28T10:42:26.723Z,14.20
2022-09-28T10:44:57.801Z,14.50
2022-09-28T10:47:29.154Z,14.30
2022-09-28T10:49:57.655Z,14.40
2022-09-28T10:52:41.538Z,14.50
2022-09-28T10:55:28.557Z,14.60
2022-09-28T10:57:57.963Z,14.70
2022-09-28T11:00:35.168Z,14.90
2022-09-28T11:03:04.044Z,14.80
2022-09-28T11:05:32.547Z,14.80
2022-09-28T11:08:05.937Z,14.90
2022-09-28T11:10:34.595Z,15.00
2022-09-28T11:13:03.934Z,15.00
2022-09-28T11:15:34.026Z,15.00
2022-09-28T11:18:21.181Z,15.10
2022-09-28T11:20:49.537Z,15.20
2022-09-28T11:23:21.282Z,15.20
2022-09-28T11:26:01.431Z,15.30
2022-09-28T11:28:34.227Z,15.40
2022-09-28T11:31:03.118Z,15.40
2022-09-28T11:33:33.845Z,15.30
2022-09-28T11:36:28.118Z,15.30
2022-09-28T11:39:03.792Z,15.40
2022-09-28T11:41:42.253Z,15.50
2022-09-28T11:44:33.274Z,15.50
2022-09-28T11:47:13.105Z,15.50
2022-09-28T11:49:44.798Z,15.50
2022-09-28T11:52:19.698Z,15.50
2022-09-28T11:54:53.663Z,15.50
2022-09-28T11:57:26.389Z,15.50
2022-09-28T12:00:00.962Z,15.50
2022-09-28T12:02:34.723Z,15.60
2022-09-28T12:05:18.403Z,15.60
2022-09-28T12:07:52.073Z,15.60
2022-09-28T12:10:26.714Z,15.70
2022-09-28T12:13:01.059Z,15.60
2022-09-28T12:15:53.023Z,15.70
2022-09-28T12:18:27.221Z,15.60
2022-09-28T12:21:05.039Z,15.60
2022-09-28T12:23:36.752Z,15.70
2022-09-28T12:26:11.892Z,15.60
2022-09-28T12:28:44.887Z,15.50
2022-09-28T12:31:18.871Z,15.60
2022-09-28T12:33:48.988Z,15.50
2022-09-28T12:36:32.509Z,15.60
2022-09-28T12:39:27.201Z,15.50
2022-09-28T12:42:15.027Z,15.40
2022-09-28T12:44:59.376Z,15.40
2022-09-28T12:47:49.114Z,15.40
2022-09-28T12:50:40.828Z,15.40
2022-09-28T12:53:30.027Z,15.50
2022-09-28T12:56:03.315Z,15.30
2022-09-28T12:58:59.840Z,15.30
2022-09-28T13:01:46.391Z,15.30
2022-09-28T13:04:35.125Z,15.20
2022-09-28T13:07:07.428Z,15.20
2022-09-28T13:09:47.069Z,15.20
2022-09-28T13:12:25.935Z,15.10
2022-09-28T13:15:24.726Z,15.20
2022-09-28T13:18:02.791Z,15.00
2022-09-28T13:20:54.075Z,15.00
2022-09-28T13:23:24.813Z,14.90
2022-09-28T13:26:00.046Z,14.90
2022-09-28T13:28:29.535Z,14.80
2022-09-28T13:33:36.832Z,14.70
2022-09-28T13:36:43.471Z,14.60
2022-09-28T13:39:36.387Z,14.70
2022-09-28T13:42:05.820Z,14.60
2022-09-28T13:44:59.528Z,14.50
2022-09-28T13:47:57.974Z,14.40
2022-09-28T13:50:36.828Z,14.30
2022-09-28T13:53:28.196Z,14.20
2022-09-28T13:56:04.540Z,14.20
2022-09-28T13:58:37.500Z,14.20
2022-09-28T14:01:12.384Z,14.10
2022-09-28T14:03:54.749Z,14.10
2022-09-28T14:06:25.726Z,14.10
2022-09-28T14:09:23.961Z,13.90
2022-09-28T14:12:00.359Z,14.00
2022-09-28T14:14:48.436Z,14.00
2022-09-28T14:17:55.352Z,14.00
2022-09-28T14:20:27.276Z,13.90
2022-09-28T14:23:25.238Z,14.00
2022-09-28T14:26:21.303Z,13.90
2022-09-28T14:29:01.887Z,13.90
2022-09-28T14:31:31.180Z,13.90
2022-09-28T14:34:01.885Z,14.00
2022-09-28T14:36:53.086Z,14.00
2022-09-28T14:39:41.297Z,14.10
2022-09-28T14:42:15.702Z,14.00
2022-09-28T14:45:34.766Z,14.10
2022-09-28T14:48:23.070Z,14.20
2022-09-28T14:50:51.412Z,14.30
2022-09-28T14:53:25.019Z,14.40
2022-09-28T14:55:56.562Z,14.40
2022-09-28T14:58:28.757Z,14.40
2022-09-28T15:01:06.540Z,14.60
2022-09-28T15:03:37.152Z,14.50
2022-09-28T15:06:05.258Z,14.60
2022-09-28T15:08:40.180Z,14.80
2022-09-28T15:11:14.744Z,14.90
2022-09-28T15:13:44.561Z,14.90
2022-09-28T15:16:15.084Z,14.90
2022-09-28T15:19:11.465Z,14.90
2022-09-28T15:21:41.969Z,15.00
2022-09-28T15:24:31.373Z,15.20
2022-09-28T15:27:00.250Z,15.10
2022-09-28T15:29:31.669Z,15.10
2022-09-28T15:31:59.678Z,15.10
2022-09-28T15:34:46.401Z,15.10
2022-09-28T15:37:16.752Z,15.20
2022-09-28T15:39:48.111Z,15.30
2022-09-28T15:42:17.569Z,15.10
2022-09-28T15:45:02.548Z,15.10
2022-09-28T15:47:32.882Z,15.10
2022-09-28T15:50:02.902Z,15.10
2022-09-28T15:52:39.800Z,15.20
2022-09-28T15:55:20.131Z,15.00
2022-09-28T15:57:48.518Z,15.00
2022-09-28T16:00:30.105Z,14.90
2022-09-28T16:03:00.946Z,14.90
2022-09-28T16:05:36.732Z,15.00
2022-09-28T16:08:06.017Z,14.90
2022-09-28T16:10:35.861Z,14.90
2022-09-28T16:13:18.585Z,14.90
2022-09-28T16:15:55.377Z,14.80
2022-09-28T16:18:23.640Z,14.80
2022-09-28T16:20:53.129Z,14.80
2022-09-28T16:23:25.429Z,14.70
2022-09-28T16:25:58.701Z,14.60
2022-09-28T16:28:48.866Z,14.60
2022-09-28T16:31:41.250Z,14.70
2022-09-28T16:34:19.779Z,14.40
2022-09-28T16:36:49.028Z,14.50
2022-09-28T16:39:18.598Z,14.50
2022-09-28T16:41:49.903Z,14.40
2022-09-28T16:44:24.415Z,14.40
2022-09-28T16:46:56.891Z,14.30
2022-09-28T16:49:26.797Z,14.30
2022-09-28T16:51:55.192Z,14.20
2022-09-28T16:54:41.675Z,14.20
2022-09-28T16:57:12.459Z,14.20
2022-09-28T16:59:40.796Z,14.00
2022-09-28T17:02:45.281Z,14.10
2022-09-28T17:05:10.176Z,14.00
2022-09-28T17:07:38.219Z,13.90
2022-09-28T17:10:15.623Z,14.00
2022-09-28T17:12:43.588Z,13.90
2022-09-28T17:15:11.962Z,13.90
2022-09-28T17:17:41.234Z,13.80
2022-09-28T17:20:20.301Z,13.80
2022-09-28T17:22:48.228Z,13.70
2022-09-28T17:25:16.601Z,13.80
2022-09-28T17:27:47.577Z,13.70
2022-09-28T17:30:16.251Z,13.60
2022-09-28T17:32:47.121Z,13.60
2022-09-28T17:35:25.314Z,13.50
2022-09-28T17:37:54.227Z,13.50
2022-09-28T17:40:24.467Z,13.50
2022-09-28T17:42:56.088Z,13.40
2022-09-28T17:45:25.783Z,13.30
2022-09-28T17:47:55.476Z,13.40
2022-09-28T17:50:25.353Z,13.30
2022-09-28T17:52:53.888Z,13.20
2022-09-28T17:55:22.951Z,13.20
2022-09-28T17:57:51.647Z,13.20
2022-09-28T18:00:19.746Z,13.10
2022-09-28T18:02:48.558Z,13.10
2022-09-28T18:05:19.598Z,13.10
2022-09-28T18:07:47.969Z,12.90
2022-09-28T18:10:19.512Z,12.90
2022-09-28T18:12:47.529Z,13.00
2022-09-28T18:15:15.989Z,12.90
2022-09-28T18:17:43.986Z,12.70
2022-09-28T18:20:13.296Z,12.70
2022-09-28T18:22:42.622Z,12.80
2022-09-28T18:25:11.112Z,12.70
2022-09-28T18:27:39.110Z,12.60
2022-09-28T18:30:08.340Z,12.60
2022-09-28T18:32:37.396Z,12.60
2022-09-28T18:35:05.926Z,12.50
2022-09-28T18:37:37.368Z,12.50
2022-09-28T18:40:08.780Z,12.50
2022-09-28T18:42:36.845Z,12.40
2022-09-28T18:45:07.120Z,12.30
2022-09-28T18:47:35.166Z,12.30
2022-09-28T18:50:03.239Z,12.20
2022-09-28T18:52:31.185Z,12.20
2022-09-28T18:54:59.221Z,12.10
2022-09-28T18:57:28.534Z,12.10
2022-09-28T18:59:56.495Z,12.00
2022-09-28T19:02:24.504Z,12.10
2022-09-28T19:04:53.210Z,12.10
2022-09-28T19:07:21.246Z,11.90
2022-09-28T19:09:49.359Z,11.90
2022-09-28T19:12:17.301Z,11.90
2022-09-28T19:14:46.613Z,11.80
2022-09-28T19:17:14.602Z,11.90
2022-09-28T19:19:42.926Z,11.90
2022-09-28T19:22:10.880Z,11.80
2022-09-28T19:24:38.817Z,11.80
2022-09-28T19:27:06.737Z,11.80
2022-09-28T19:29:34.633Z,11.80
2022-09-28T19:32:04.037Z,11.70
2022-09-28T19:34:32.044Z,11.70
2022-09-28T19:37:03.723Z,11.70
2022-09-28T19:39:31.711Z,11.60
2022-09-28T19:42:01.123Z,11.60
2022-09-28T19:44:31.161Z,11.60
2022-09-28T19:47:00.667Z,11.50
2022-09-28T19:49:36.925Z,11.50
2022-09-28T19:52:15.323Z,11.50
2022-09-28T19:54:45.248Z,11.60
2022-09-28T19:57:15.636Z,11.50
2022-09-28T19:59:43.871Z,11.50
2022-09-28T20:02:13.285Z,11.50
2022-09-28T20:04:42.657Z,11.60
2022-09-28T20:07:10.615Z,11.40
2022-09-28T20:09:38.672Z,11.40
2022-09-28T20:12:06.873Z,11.40
2022-09-28T20:14:39.464Z,11.40
2022-09-28T20:17:08.792Z,11.40
2022-09-28T20:19:36.713Z,11.40
2022-09-28T20:22:06.149Z,11.40
2022-09-28T20:24:34.078Z,11.40
2022-09-28T20:27:02.849Z,11.40
2022-09-28T20:29:33.173Z,11.40
2022-09-28T20:32:01.704Z,11.40
2022-09-28T20:34:29.636Z,11.40
2022-09-28T20:36:57.567Z,11.40
2022-09-28T20:39:26.956Z,11.30
2022-09-28T20:41:56.225Z,11.20
2022-09-28T20:44:24.206Z,11.30
2022-09-28T20:46:52.716Z,11.30
2022-09-28T20:49:20.677Z,11.30
2022-09-28T20:51:48.609Z,11.20
2022-09-28T20:54:16.646Z,11.30
2022-09-28T20:56:48.038Z,11.30
2022-09-28T20:59:16.242Z,11.30
2022-09-28T21:01:44.299Z,11.20
2022-09-28T21:04:12.498Z,11.30
2022-09-28T21:06:42.072Z,11.20
2022-09-28T21:09:12.065Z,11.20
2022-09-28T21:11:40.284Z,11.20
2022-09-28T21:14:10.632Z,11.20
2022-09-28T21:16:39.352Z,11.30
2022-09-28T21:19:07.285Z,11.20
2022-09-28T21:21:35.282Z,11.20
2022-09-28T21:24:03.421Z,11.20
2022-09-28T21:26:32.194Z,11.20
2022-09-28T21:29:01.467Z,11.20
2022-09-28T21:31:32.568Z,11.20
2022-09-28T21:34:00.900Z,11.20
2022-09-28T21:36:28.790Z,11.20
2022-09-28T21:38:56.746Z,11.10
2022-09-28T21:41:25.458Z,11.20
2022-09-28T21:43:53.635Z,11.20
2022-09-28T21:46:21.650Z,11.20
2022-09-28T21:48:54.358Z,11.10
2022-09-28T21:51:22.565Z,11.20
2022-09-28T21:53:50.597Z,11.10
2022-09-28T21:56:18.905Z,11.10
2022-09-28T21:58:47.551Z,11.00
2022-09-28T22:01:18.268Z,11.10
2022-09-28T22:03:48.489Z,11.00
2022-09-28T22:06:19.410Z,11.00
2022-09-28T22:08:49.426Z,11.00
2022-09-28T22:11:19.532Z,11.00
2022-09-28T22:13:48.990Z,11.00
2022-09-28T22:16:18.517Z,10.90
2022-09-28T22:18:47.299Z,10.90
2022-09-28T22:21:18.421Z,10.90
2022-09-28T22:23:46.603Z,10.90
2022-09-28T22:26:18.022Z,10.80
2022-09-28T22:28:47.782Z,10.80
2022-09-28T22:31:16.175Z,10.80
2022-09-28T22:33:44.320Z,10.80
2022-09-28T22:36:14.946Z,10.70
2022-09-28T22:38:44.295Z,10.70
2022-09-28T22:41:12.841Z,10.70
2022-09-28T22:43:40.765Z,10.70
2022-09-28T22:46:10.914Z,10.70
2022-09-28T22:48:39.192Z,10.60
2022-09-28T22:51:08.138Z,10.60
2022-09-28T22:53:36.645Z,10.60
2022-09-28T22:56:07.278Z,10.60
2022-09-28T22:58:36.267Z,10.60
2022-09-28T23:01:08.551Z,10.60
2022-09-28T23:03:36.958Z,10.50
2022-09-28T23:06:05.098Z,10.50
2022-09-28T23:08:33.412Z,10.50
2022-09-28T23:11:02.071Z,10.50
2022-09-28T23:13:31.406Z,10.50
2022-09-28T23:16:01.172Z,10.40
2022-09-28T23:18:31.002Z,10.40
2022-09-28T23:21:01.230Z,10.40
2022-09-28T23:23:29.721Z,10.40
2022-09-28T23:25:58.000Z,10.40
2022-09-28T23:28:27.361Z,10.30
2022-09-28T23:30:56.703Z,10.30
2022-09-28T23:33:24.632Z,10.40
2022-09-28T23:35:52.574Z,10.30
2022-09-28T23:38:20.495Z,10.30
2022-09-28T23:40:48.785Z,10.30
2022-09-28T23:43:16.714Z,10.30
2022-09-28T23:45:44.905Z,10.30
2022-09-28T23:48:14.999Z,10.30
2022-09-28T23:50:43.443Z,10.30
2022-09-28T23:53:11.811Z,10.30
2022-09-28T23:55:39.810Z,10.30
2022-09-28T23:58:07.817Z,10.30
